Time;durP1;ratioP1;P1;durP2;ratioP2;P2;SDS_P1;SDS_P2;PMS_P1;PMS_P2;Temp;Humidity;BMP_temperature;BMP_pressure;BME280_temperature;BME280_humidity;BME280_pressure;Samples;Min_cycle;Max_cycle;Signal;HPM_P1;HPM_P2
2022/12/26 00:01:28;;;;;;;8.18;2.20;;;;;;;;;;5051804;28;20070;-38
2022/12/26 00:03:55;;;;;;;13.15;2.80;;;;;;;;;;5051721;28;20025;-38
2022/12/26 00:06:26;;;;;;;14.32;2.20;;;;;;;;;;5051602;28;20044;-38
2022/12/26 00:08:54;;;;;;;12.05;2.10;;;;;;;;;;5051644;28;20104;-38
2022/12/26 00:11:21;;;;;;;11.30;1.80;;;;;;;;;;5051657;28;20021;-38
2022/12/26 00:13:53;;;;;;;11.18;2.28;;;;;;;;;;5051540;28;20021;-38
2022/12/26 00:16:20;;;;;;;10.43;2.60;;;;;;;;;;5051687;28;20048;-38
2022/12/26 00:18:47;;;;;;;9.85;2.28;;;;;;;;;;5051588;28;20037;-38
2022/12/26 00:21:15;;;;;;;14.73;2.63;;;;;;;;;;5051507;28;20161;-38
2022/12/26 00:23:42;;;;;;;10.18;2.08;;;;;;;;;;5051494;28;20406;-38
2022/12/26 00:26:09;;;;;;;9.88;2.13;;;;;;;;;;5051411;28;20048;-38
2022/12/26 00:28:37;;;;;;;17.23;2.20;;;;;;;;;;5051433;28;20028;-38
2022/12/26 00:31:04;;;;;;;10.52;2.42;;;;;;;;;;5051296;28;20029;-38
2022/12/26 00:33:31;;;;;;;14.45;2.50;;;;;;;;;;5052813;28;20048;-38
2022/12/26 00:36:15;;;;;;;13.52;2.40;;;;;;;;;;5055310;28;20032;-38
2022/12/26 00:38:42;;;;;;;12.45;2.50;;;;;;;;;;5055221;28;20017;-38
2022/12/26 00:41:10;;;;;;;12.63;2.40;;;;;;;;;;5055132;28;20066;-38
2022/12/26 00:43:37;;;;;;;11.85;2.20;;;;;;;;;;5055141;28;20025;-38
2022/12/26 00:46:04;;;;;;;15.98;3.05;;;;;;;;;;5054941;28;20116;-38
2022/12/26 00:48:32;;;;;;;16.38;2.92;;;;;;;;;;5053507;28;20036;-38
2022/12/26 00:50:59;;;;;;;13.07;2.70;;;;;;;;;;5054884;28;20025;-38
2022/12/26 00:53:26;;;;;;;11.15;2.70;;;;;;;;;;5054929;28;20052;-38
2022/12/26 00:55:53;;;;;;;12.98;2.72;;;;;;;;;;5054518;28;20534;-38
2022/12/26 00:58:20;;;;;;;16.25;2.60;;;;;;;;;;5054886;28;20414;-38
2022/12/26 01:00:48;;;;;;;12.85;2.92;;;;;;;;;;5054634;28;20150;-38
2022/12/26 01:03:15;;;;;;;15.07;2.63;;;;;;;;;;5054806;28;20067;-38
2022/12/26 01:05:43;;;;;;;18.60;3.45;;;;;;;;;;5054620;28;20033;-38
2022/12/26 01:08:10;;;;;;;13.48;2.97;;;;;;;;;;5054320;28;20126;-38
2022/12/26 01:10:37;;;;;;;17.08;2.70;;;;;;;;;;5054481;28;20075;-38
2022/12/26 01:13:04;;;;;;;16.27;2.72;;;;;;;;;;5054429;28;20096;-38
2022/12/26 01:15:31;;;;;;;15.38;2.97;;;;;;;;;;5054357;28;20049;-38
2022/12/26 01:17:58;;;;;;;15.98;3.03;;;;;;;;;;5054184;28;20025;-40
2022/12/26 01:20:26;;;;;;;13.80;2.67;;;;;;;;;;5053950;28;20079;-38
2022/12/26 01:22:53;;;;;;;18.48;2.90;;;;;;;;;;5054329;28;20036;-38
2022/12/26 01:25:21;;;;;;;17.35;2.85;;;;;;;;;;5053841;28;20045;-38
2022/12/26 01:27:48;;;;;;;15.57;2.97;;;;;;;;;;5054102;28;20056;-38
2022/12/26 01:30:14;;;;;;;16.70;2.72;;;;;;;;;;5056068;28;20036;-38
2022/12/26 01:32:41;;;;;;;17.45;3.13;;;;;;;;;;5065972;28;20060;-39
2022/12/26 01:35:09;;;;;;;14.27;2.90;;;;;;;;;;5036147;28;20033;-39
2022/12/26 01:37:36;;;;;;;24.90;3.30;;;;;;;;;;5056751;28;20024;-39
2022/12/26 01:40:03;;;;;;;12.82;3.00;;;;;;;;;;5062639;28;20037;-38
2022/12/26 01:42:36;;;;;;;20.98;3.05;;;;;;;;;;5062427;28;20021;-39
2022/12/26 01:45:03;;;;;;;17.90;3.05;;;;;;;;;;5025894;28;20033;-39
2022/12/26 01:47:36;;;;;;;16.65;3.05;;;;;;;;;;5036241;28;20402;-35
2022/12/26 01:50:04;;;;;;;21.67;3.97;;;;;;;;;;5053139;28;20029;-34
2022/12/26 01:52:37;;;;;;;22.98;4.07;;;;;;;;;;5060668;28;20074;-35
2022/12/26 01:55:05;;;;;;;22.00;4.00;;;;;;;;;;5063122;28;20029;-35
2022/12/26 01:57:42;;;;;;;24.40;4.00;;;;;;;;;;5059244;28;20033;-35
2022/12/26 02:00:10;;;;;;;28.98;3.80;;;;;;;;;;5057901;28;20036;-35
2022/12/26 02:05:34;;;;;;;27.00;3.67;;;;;;;;;;5052750;28;20056;-35
2022/12/26 02:08:03;;;;;;;17.35;3.80;;;;;;;;;;5062339;28;20111;-35
2022/12/26 02:10:33;;;;;;;28.25;3.80;;;;;;;;;;5053056;28;20025;-34
2022/12/26 02:13:00;;;;;;;20.65;4.22;;;;;;;;;;5053296;28;20017;-35
2022/12/26 02:15:28;;;;;;;28.23;4.22;;;;;;;;;;5053157;28;20049;-34
2022/12/26 02:17:55;;;;;;;26.60;4.05;;;;;;;;;;5052842;28;20475;-35
2022/12/26 02:20:23;;;;;;;23.20;4.13;;;;;;;;;;5054290;28;20453;-35
2022/12/26 02:22:50;;;;;;;26.35;4.10;;;;;;;;;;5064455;28;20027;-34
2022/12/26 02:25:26;;;;;;;30.15;3.90;;;;;;;;;;5072766;28;20020;-34
2022/12/26 02:28:12;;;;;;;18.17;4.10;;;;;;;;;;5066268;28;20471;-36
2022/12/26 02:31:05;;;;;;;28.45;4.00;;;;;;;;;;5059212;28;20119;-35
2022/12/26 02:33:33;;;;;;;26.85;3.75;;;;;;;;;;5057299;28;20036;-35
2022/12/26 02:36:06;;;;;;;16.80;3.72;;;;;;;;;;5062644;28;20016;-35
2022/12/26 02:38:47;;;;;;;28.17;4.13;;;;;;;;;;5028659;28;20028;-35
2022/12/26 02:41:23;;;;;;;22.63;3.85;;;;;;;;;;5062658;28;20363;-35
2022/12/26 02:43:54;;;;;;;22.33;3.50;;;;;;;;;;5062812;28;20017;-36
2022/12/26 02:49:22;;;;;;;19.67;3.70;;;;;;;;;;5060773;28;20036;-36
2022/12/26 03:15:15;;;;;;;14.25;3.15;;;;;;;;;;5065760;28;20059;-38
2022/12/26 03:17:44;;;;;;;15.98;2.97;;;;;;;;;;5066141;28;20028;-38
2022/12/26 03:20:11;;;;;;;12.57;2.83;;;;;;;;;;5072088;28;20494;-37
2022/12/26 03:22:45;;;;;;;14.93;2.88;;;;;;;;;;5056714;28;20103;-38
2022/12/26 03:28:05;;;;;;;16.63;2.97;;;;;;;;;;5052095;28;20040;-38
2022/12/26 03:30:50;;;;;;;12.90;2.53;;;;;;;;;;5051853;28;20023;-37
2022/12/26 03:36:31;;;;;;;11.05;2.63;;;;;;;;;;5041585;28;20128;-37
2022/12/26 03:39:06;;;;;;;13.55;3.15;;;;;;;;;;4996317;28;20503;-38
2022/12/26 04:19:24;;;;;;;9.43;2.53;;;;;;;;;;5055761;28;20043;-38
2022/12/26 04:44:34;;;;;;;13.00;2.38;;;;;;;;;;5055217;28;20035;-37
2022/12/26 04:47:01;;;;;;;9.05;2.15;;;;;;;;;;5055051;28;20570;-37
2022/12/26 04:52:14;;;;;;;12.13;2.33;;;;;;;;;;5054908;28;20445;-38
2022/12/26 04:54:42;;;;;;;7.68;2.15;;;;;;;;;;5054696;28;20391;-37
2022/12/26 04:57:09;;;;;;;11.40;2.60;;;;;;;;;;5054754;28;20021;-38
2022/12/26 04:59:35;;;;;;;9.82;2.25;;;;;;;;;;5054645;28;20031;-38
2022/12/26 05:10:21;;;;;;;10.10;2.28;;;;;;;;;;5054485;28;20055;-37
2022/12/26 05:12:48;;;;;;;7.63;2.10;;;;;;;;;;5054520;28;20021;-37
2022/12/26 05:15:15;;;;;;;9.80;2.03;;;;;;;;;;5054349;28;20526;-37
2022/12/26 05:28:56;;;;;;;7.38;2.05;;;;;;;;;;5054313;28;20102;-37
2022/12/26 05:31:23;;;;;;;6.70;2.00;;;;;;;;;;5054059;28;20509;-37
2022/12/26 05:36:37;;;;;;;8.63;1.90;;;;;;;;;;5054087;28;20040;-37
2022/12/26 05:39:05;;;;;;;7.50;1.90;;;;;;;;;;5053981;28;20521;-37
2022/12/26 05:41:32;;;;;;;6.05;1.55;;;;;;;;;;5053806;28;20033;-38
2022/12/26 05:43:59;;;;;;;7.40;1.80;;;;;;;;;;5054051;28;20072;-37
2022/12/26 05:46:26;;;;;;;6.90;1.67;;;;;;;;;;5053765;28;20037;-37
2022/12/26 05:48:53;;;;;;;5.95;1.73;;;;;;;;;;5053695;28;20036;-37
2022/12/26 05:51:20;;;;;;;5.93;1.42;;;;;;;;;;5053746;28;20029;-37
2022/12/26 05:53:47;;;;;;;8.35;2.50;;;;;;;;;;5053833;28;20060;-37
2022/12/26 05:56:15;;;;;;;4.55;1.60;;;;;;;;;;5053561;28;20072;-37
2022/12/26 05:58:42;;;;;;;4.65;1.42;;;;;;;;;;5053517;28;20493;-37
2022/12/26 06:01:19;;;;;;;8.18;1.80;;;;;;;;;;5050348;28;20029;-38
2022/12/26 06:03:47;;;;;;;7.72;1.80;;;;;;;;;;5053443;28;20021;-37
2022/12/26 06:06:15;;;;;;;4.22;1.40;;;;;;;;;;5053456;28;20029;-37
2022/12/26 06:08:42;;;;;;;4.63;1.52;;;;;;;;;;5053387;28;20447;-37
2022/12/26 06:11:11;;;;;;;6.22;1.85;;;;;;;;;;5053164;28;20440;-37
2022/12/26 06:13:38;;;;;;;4.75;1.42;;;;;;;;;;5053293;28;20044;-37
2022/12/26 06:16:06;;;;;;;4.80;1.52;;;;;;;;;;5053163;28;20049;-37
2022/12/26 06:18:33;;;;;;;7.38;1.50;;;;;;;;;;5053118;28;20025;-37
2022/12/26 06:21:03;;;;;;;4.00;1.60;;;;;;;;;;5053349;28;20507;-37
2022/12/26 06:23:30;;;;;;;6.60;1.52;;;;;;;;;;5053173;28;20406;-37
2022/12/26 06:25:57;;;;;;;4.60;1.60;;;;;;;;;;5053164;28;20033;-37
2022/12/26 06:28:25;;;;;;;5.05;1.25;;;;;;;;;;5053032;28;20032;-37
2022/12/26 06:30:52;;;;;;;5.43;1.63;;;;;;;;;;5053026;28;20052;-37
2022/12/26 06:33:19;;;;;;;4.13;1.52;;;;;;;;;;5035032;28;20057;-37
2022/12/26 06:35:46;;;;;;;9.45;1.70;;;;;;;;;;5052961;28;20037;-37
2022/12/26 06:38:13;;;;;;;5.07;1.67;;;;;;;;;;5052980;28;20079;-37
2022/12/26 06:40:40;;;;;;;5.70;1.52;;;;;;;;;;5052961;28;20082;-37
2022/12/26 06:43:08;;;;;;;5.80;1.20;;;;;;;;;;5034851;28;20440;-37
2022/12/26 06:45:35;;;;;;;8.30;1.55;;;;;;;;;;5052671;28;20040;-37
2022/12/26 06:48:02;;;;;;;7.45;1.42;;;;;;;;;;5052540;28;20033;-37
2022/12/26 06:50:29;;;;;;;5.85;1.60;;;;;;;;;;5034556;28;20048;-37
2022/12/26 06:52:56;;;;;;;6.10;1.30;;;;;;;;;;5052701;28;20025;-37
2022/12/26 06:55:23;;;;;;;5.70;1.27;;;;;;;;;;5052532;28;20040;-37
2022/12/26 06:57:52;;;;;;;6.28;1.48;;;;;;;;;;5052459;28;20543;-37
2022/12/26 07:00:19;;;;;;;5.93;1.30;;;;;;;;;;5052211;28;20068;-37
2022/12/26 07:02:50;;;;;;;4.20;1.20;;;;;;;;;;5052095;28;20028;-37
2022/12/26 07:05:17;;;;;;;5.32;1.33;;;;;;;;;;5052191;28;20083;-37
2022/12/26 07:07:44;;;;;;;4.47;1.25;;;;;;;;;;5052410;28;20033;-37
2022/12/26 07:10:11;;;;;;;4.68;1.35;;;;;;;;;;5052307;28;20036;-37
2022/12/26 07:12:38;;;;;;;3.80;1.20;;;;;;;;;;5052108;28;20021;-37
2022/12/26 07:15:08;;;;;;;4.40;1.20;;;;;;;;;;5052051;28;20087;-37
2022/12/26 07:17:36;;;;;;;5.18;1.10;;;;;;;;;;5051930;28;20096;-38
2022/12/26 07:20:04;;;;;;;3.83;1.23;;;;;;;;;;5052124;28;20025;-37
2022/12/26 07:22:31;;;;;;;3.65;1.23;;;;;;;;;;5052157;28;20048;-37
2022/12/26 07:24:58;;;;;;;3.47;1.25;;;;;;;;;;5051889;28;20082;-37
2022/12/26 07:27:25;;;;;;;5.25;1.17;;;;;;;;;;5052094;28;20021;-37
2022/12/26 07:29:52;;;;;;;4.28;1.20;;;;;;;;;;5051895;28;20500;-37
2022/12/26 07:32:19;;;;;;;2.63;1.08;;;;;;;;;;5052039;28;20021;-37
2022/12/26 07:34:46;;;;;;;4.47;1.35;;;;;;;;;;5051923;28;20474;-37
2022/12/26 07:37:13;;;;;;;3.20;1.20;;;;;;;;;;5051980;28;20035;-38
2022/12/26 07:39:40;;;;;;;2.67;1.10;;;;;;;;;;5052008;28;20436;-37
2022/12/26 07:42:07;;;;;;;3.65;1.20;;;;;;;;;;5051447;28;20020;-37
2022/12/26 07:44:33;;;;;;;3.00;0.80;;;;;;;;;;5051594;28;20032;-37
2022/12/26 07:47:01;;;;;;;3.65;1.17;;;;;;;;;;5050879;28;20426;-37
2022/12/26 07:49:28;;;;;;;7.95;1.60;;;;;;;;;;5051330;28;20025;-37
2022/12/26 07:51:55;;;;;;;4.03;1.20;;;;;;;;;;5051821;28;20079;-37
2022/12/26 07:54:22;;;;;;;5.68;1.30;;;;;;;;;;5051860;28;20071;-37
2022/12/26 07:56:49;;;;;;;5.00;1.15;;;;;;;;;;5051655;28;20108;-37
2022/12/26 07:59:17;;;;;;;9.40;1.55;;;;;;;;;;5051556;28;20528;-37
2022/12/26 08:01:44;;;;;;;11.38;1.58;;;;;;;;;;5033071;28;20057;-37
2022/12/26 08:04:12;;;;;;;8.38;1.40;;;;;;;;;;5031877;28;20025;-37
2022/12/26 08:06:39;;;;;;;7.82;1.50;;;;;;;;;;5031743;28;20096;-37
2022/12/26 08:09:06;;;;;;;7.80;1.42;;;;;;;;;;5031710;28;20057;-37
2022/12/26 08:11:34;;;;;;;8.10;1.33;;;;;;;;;;5031726;28;20132;-37
2022/12/26 08:14:01;;;;;;;7.32;1.42;;;;;;;;;;5031854;28;20109;-37
2022/12/26 08:16:30;;;;;;;8.00;1.52;;;;;;;;;;5030072;28;20518;-37
2022/12/26 08:19:20;;;;;;;7.40;1.50;;;;;;;;;;5031479;28;20088;-37
2022/12/26 08:21:47;;;;;;;5.20;1.30;;;;;;;;;;5031711;28;20034;-37
2022/12/26 08:24:14;;;;;;;6.85;1.30;;;;;;;;;;5031674;28;20021;-37
2022/12/26 08:26:41;;;;;;;6.75;1.60;;;;;;;;;;5031801;28;20494;-37
2022/12/26 08:29:10;;;;;;;11.52;1.50;;;;;;;;;;5031353;28;20041;-37
2022/12/26 08:31:37;;;;;;;10.80;1.30;;;;;;;;;;5031525;28;20037;-37
2022/12/26 08:34:04;;;;;;;8.65;1.50;;;;;;;;;;5031584;28;20018;-37
2022/12/26 08:36:30;;;;;;;8.23;1.90;;;;;;;;;;5031480;28;20404;-37
2022/12/26 08:38:58;;;;;;;12.10;1.75;;;;;;;;;;5031293;28;20041;-37
2022/12/26 08:41:25;;;;;;;8.43;1.58;;;;;;;;;;5031542;28;20033;-37
2022/12/26 08:43:53;;;;;;;7.53;1.40;;;;;;;;;;5031243;28;20041;-38
2022/12/26 08:46:21;;;;;;;6.60;1.77;;;;;;;;;;5031395;28;20055;-37
2022/12/26 08:48:48;;;;;;;7.97;1.27;;;;;;;;;;5031301;28;20427;-37
2022/12/26 08:51:16;;;;;;;7.57;1.40;;;;;;;;;;5031340;28;20104;-37
2022/12/26 08:53:44;;;;;;;12.27;1.80;;;;;;;;;;5031402;28;20049;-37
2022/12/26 08:56:15;;;;;;;8.32;1.48;;;;;;;;;;5034930;28;20051;-37
2022/12/26 08:58:42;;;;;;;10.73;1.58;;;;;;;;;;5034847;28;20017;-37
2022/12/26 09:01:11;;;;;;;10.70;1.77;;;;;;;;;;5034952;28;20112;-37
2022/12/26 09:03:38;;;;;;;12.73;1.63;;;;;;;;;;5034823;28;20033;-37
2022/12/26 09:06:05;;;;;;;9.80;2.10;;;;;;;;;;5034821;28;20091;-37
2022/12/26 09:08:35;;;;;;;7.68;1.70;;;;;;;;;;5034459;28;20037;-37
2022/12/26 09:11:03;;;;;;;8.43;1.42;;;;;;;;;;5034330;28;20041;-37
2022/12/26 09:13:31;;;;;;;9.30;1.63;;;;;;;;;;5034547;28;20036;-37
2022/12/26 09:16:04;;;;;;;7.15;1.27;;;;;;;;;;5034439;28;20045;-37
2022/12/26 09:18:30;;;;;;;8.60;2.00;;;;;;;;;;5034466;28;20431;-37
2022/12/26 09:21:01;;;;;;;6.55;1.70;;;;;;;;;;5034539;28;20038;-37
2022/12/26 09:23:28;;;;;;;11.07;1.67;;;;;;;;;;5034367;28;20387;-37
2022/12/26 09:25:55;;;;;;;12.50;1.92;;;;;;;;;;5034350;28;20116;-37
2022/12/26 09:28:22;;;;;;;12.13;2.00;;;;;;;;;;5034243;28;20021;-37
2022/12/26 09:30:49;;;;;;;13.93;1.55;;;;;;;;;;5034382;28;20022;-37
2022/12/26 09:33:16;;;;;;;8.82;1.55;;;;;;;;;;5034220;28;20526;-37
2022/12/26 09:35:43;;;;;;;11.10;1.70;;;;;;;;;;5034235;28;20120;-37
2022/12/26 09:38:10;;;;;;;9.20;1.80;;;;;;;;;;5033978;28;20030;-37
2022/12/26 09:41:02;;;;;;;15.00;1.92;;;;;;;;;;5034195;28;20026;-37
2022/12/26 09:43:44;;;;;;;14.03;2.10;;;;;;;;;;5034178;28;20545;-37
2022/12/26 09:46:28;;;;;;;15.68;2.28;;;;;;;;;;5034132;28;20045;-37
2022/12/26 09:48:57;;;;;;;17.23;2.67;;;;;;;;;;5033872;28;20026;-37
2022/12/26 09:51:26;;;;;;;14.80;2.08;;;;;;;;;;5033960;28;20032;-37
2022/12/26 09:53:54;;;;;;;19.80;2.50;;;;;;;;;;5033896;28;20026;-37
2022/12/26 09:56:21;;;;;;;24.95;3.08;;;;;;;;;;5033869;28;20028;-37
2022/12/26 09:58:53;;;;;;;19.10;3.30;;;;;;;;;;5033664;28;20029;-38
2022/12/26 10:04:26;;;;;;;17.02;3.13;;;;;;;;;;5033416;28;19968;-37
2022/12/26 10:07:11;;;;;;;20.00;2.30;;;;;;;;;;5033167;28;20853;-37
2022/12/26 10:09:38;;;;;;;13.50;2.30;;;;;;;;;;5033611;28;20057;-37
2022/12/26 10:12:05;;;;;;;15.18;2.88;;;;;;;;;;5033472;28;20503;-37
2022/12/26 10:14:47;;;;;;;23.85;3.22;;;;;;;;;;5033412;28;20032;-37
2022/12/26 10:17:32;;;;;;;16.90;2.47;;;;;;;;;;5033428;28;20103;-37
2022/12/26 10:19:59;;;;;;;18.70;2.65;;;;;;;;;;5033372;28;20034;-37
2022/12/26 10:22:32;;;;;;;15.23;2.70;;;;;;;;;;5033246;28;20033;-37
2022/12/26 10:25:01;;;;;;;9.25;2.00;;;;;;;;;;5033237;28;20047;-37
2022/12/26 10:27:31;;;;;;;12.48;1.92;;;;;;;;;;5033133;28;20033;-37
2022/12/26 10:30:00;;;;;;;16.80;2.55;;;;;;;;;;5033274;28;20488;-37
2022/12/26 10:32:47;;;;;;;13.82;1.88;;;;;;;;;;5032983;28;20036;-37
2022/12/26 10:35:32;;;;;;;10.27;2.10;;;;;;;;;;5033097;28;20030;-37
2022/12/26 10:38:11;;;;;;;13.07;2.72;;;;;;;;;;5033074;28;20029;-37
2022/12/26 10:40:40;;;;;;;11.07;2.30;;;;;;;;;;5032987;28;20105;-37
2022/12/26 10:43:22;;;;;;;8.93;2.30;;;;;;;;;;5032938;28;20099;-37
2022/12/26 10:45:55;;;;;;;7.72;2.38;;;;;;;;;;5032816;28;20506;-37
2022/12/26 10:48:23;;;;;;;19.30;2.40;;;;;;;;;;5032806;28;20026;-37
2022/12/26 10:50:50;;;;;;;15.20;2.45;;;;;;;;;;5032828;28;20025;-37
2022/12/26 10:53:17;;;;;;;14.90;2.42;;;;;;;;;;5014809;28;20033;-37
2022/12/26 10:55:44;;;;;;;15.90;2.70;;;;;;;;;;5032311;28;20026;-37
2022/12/26 10:58:17;;;;;;;12.18;2.47;;;;;;;;;;5032580;28;20025;-37
2022/12/26 11:00:44;;;;;;;15.50;2.78;;;;;;;;;;5032651;28;20028;-37
2022/12/26 11:03:12;;;;;;;16.48;2.42;;;;;;;;;;5032494;28;20029;-37
2022/12/26 11:05:41;;;;;;;12.73;2.17;;;;;;;;;;5032461;28;20046;-37
2022/12/26 11:08:14;;;;;;;11.60;1.95;;;;;;;;;;5032064;28;20551;-37
2022/12/26 11:10:46;;;;;;;12.00;2.17;;;;;;;;;;5032395;28;20491;-38
2022/12/26 11:13:13;;;;;;;;;;;;;;;;;;5032995;28;20387;-37
2022/12/26 11:15:41;;;;;;;11.50;2.03;;;;;;;;;;5032326;28;20364;-37
2022/12/26 11:18:21;;;;;;;10.00;2.22;;;;;;;;;;5031769;28;20072;-37
2022/12/26 11:20:48;;;;;;;15.02;2.58;;;;;;;;;;5032269;28;20494;-37
2022/12/26 11:23:23;;;;;;;13.95;2.03;;;;;;;;;;5032280;28;20056;-37
2022/12/26 11:25:51;;;;;;;11.95;2.70;;;;;;;;;;5032299;28;20037;-37
2022/12/26 11:28:25;;;;;;;9.90;2.40;;;;;;;;;;5032242;28;20483;-37
2022/12/26 11:30:52;;;;;;;11.80;1.90;;;;;;;;;;5032182;28;20430;-38
2022/12/26 11:33:37;;;;;;;10.48;2.05;;;;;;;;;;5032152;28;20423;-37
2022/12/26 11:36:11;;;;;;;11.57;2.58;;;;;;;;;;5032211;28;20087;-37
2022/12/26 11:38:45;;;;;;;9.75;2.25;;;;;;;;;;5031250;28;20037;-38
2022/12/26 11:41:34;;;;;;;16.88;2.78;;;;;;;;;;5033568;28;20033;-38
2022/12/26 11:44:04;;;;;;;26.90;3.20;;;;;;;;;;5040299;28;20052;-39
2022/12/26 11:46:34;;;;;;;28.60;3.63;;;;;;;;;;5030387;28;20415;-39
2022/12/26 11:49:04;;;;;;;16.58;2.60;;;;;;;;;;5025770;28;20136;-39
2022/12/26 11:51:50;;;;;;;19.60;2.95;;;;;;;;;;5029955;28;20033;-40
2022/12/26 11:54:23;;;;;;;17.00;2.08;;;;;;;;;;5028140;28;20103;-38
2022/12/26 11:56:59;;;;;;;14.75;2.67;;;;;;;;;;5028894;28;20115;-40
2022/12/26 11:59:26;;;;;;;16.40;2.30;;;;;;;;;;5026532;28;20045;-36
2022/12/26 12:02:13;;;;;;;17.85;3.13;;;;;;;;;;5033108;28;20447;-41
2022/12/26 12:04:40;;;;;;;18.00;2.95;;;;;;;;;;5036891;28;20026;-39
2022/12/26 12:07:28;;;;;;;15.25;2.92;;;;;;;;;;5040695;28;20037;-39
2022/12/26 12:10:14;;;;;;;15.98;2.47;;;;;;;;;;5026622;28;20036;-36
2022/12/26 12:12:48;;;;;;;14.90;3.08;;;;;;;;;;5035268;28;20029;-37
2022/12/26 12:15:50;;;;;;;19.92;2.45;;;;;;;;;;5035433;28;20041;-42
2022/12/26 12:18:27;;;;;;;14.20;2.53;;;;;;;;;;4941409;29;20153;-41
2022/12/26 12:20:55;;;;;;;13.68;2.60;;;;;;;;;;5025477;28;20350;-42
2022/12/26 12:23:35;;;;;;;16.05;2.70;;;;;;;;;;5036202;28;20064;-42
2022/12/26 12:26:02;;;;;;;12.77;2.47;;;;;;;;;;5038318;28;20051;-41
2022/12/26 12:28:29;;;;;;;9.95;1.95;;;;;;;;;;5051605;28;20111;-41
2022/12/26 12:31:02;;;;;;;11.43;2.25;;;;;;;;;;5049465;28;20079;-40
2022/12/26 12:33:29;;;;;;;19.35;2.28;;;;;;;;;;5053035;28;20025;-41
2022/12/26 12:35:59;;;;;;;10.60;2.00;;;;;;;;;;5034488;28;20037;-38
2022/12/26 12:38:25;;;;;;;18.92;2.70;;;;;;;;;;5042524;28;20092;-36
2022/12/26 12:40:55;;;;;;;13.80;2.42;;;;;;;;;;5040422;28;20041;-38
2022/12/26 12:43:40;;;;;;;11.10;2.00;;;;;;;;;;5048297;28;20059;-38
2022/12/26 12:46:07;;;;;;;15.80;1.85;;;;;;;;;;5039847;28;20552;-36
2022/12/26 12:48:34;;;;;;;10.60;2.03;;;;;;;;;;5054453;28;20037;-36
2022/12/26 12:51:18;;;;;;;9.23;2.03;;;;;;;;;;5054806;28;20044;-36
2022/12/26 12:53:55;;;;;;;10.25;2.33;;;;;;;;;;5054814;28;20032;-36
2022/12/26 12:56:51;;;;;;;12.07;2.25;;;;;;;;;;5055007;28;20032;-36
2022/12/26 12:59:32;;;;;;;11.70;2.30;;;;;;;;;;5034086;28;20037;-36
2022/12/26 13:02:02;;;;;;;14.07;2.20;;;;;;;;;;5054869;28;20056;-36
2022/12/26 13:04:40;;;;;;;14.40;2.13;;;;;;;;;;5054871;28;20052;-36
2022/12/26 13:07:10;;;;;;;21.90;2.60;;;;;;;;;;5054736;28;20021;-36
2022/12/26 13:09:46;;;;;;;18.05;2.75;;;;;;;;;;5036657;28;20029;-36
2022/12/26 13:12:34;;;;;;;11.63;2.15;;;;;;;;;;5036530;28;20028;-36
2022/12/26 13:15:36;;;;;;;13.98;2.22;;;;;;;;;;5054371;28;20099;-36
2022/12/26 13:18:10;;;;;;;9.40;2.20;;;;;;;;;;4954255;29;20027;-36
2022/12/26 13:20:42;;;;;;;13.95;2.28;;;;;;;;;;5040007;28;20120;-36
2022/12/26 13:26:24;;;;;;;12.48;2.38;;;;;;;;;;5054370;28;20518;-36
2022/12/26 13:29:03;;;;;;;13.50;2.20;;;;;;;;;;5054091;28;20502;-36
2022/12/26 13:31:36;;;;;;;16.15;2.50;;;;;;;;;;5054291;28;20033;-36
2022/12/26 13:34:04;;;;;;;15.05;2.50;;;;;;;;;;5054262;28;20040;-36
2022/12/26 13:36:36;;;;;;;19.92;2.55;;;;;;;;;;5054240;28;20116;-36
2022/12/26 13:39:21;;;;;;;16.98;2.55;;;;;;;;;;5054183;28;20032;-36
2022/12/26 13:44:39;;;;;;;15.35;2.63;;;;;;;;;;5054352;28;20501;-36
2022/12/26 13:47:06;;;;;;;13.60;2.60;;;;;;;;;;5053971;28;20087;-36
2022/12/26 13:49:36;;;;;;;13.52;2.80;;;;;;;;;;5053926;28;20124;-36
2022/12/26 13:52:24;;;;;;;19.13;2.78;;;;;;;;;;5053663;28;20083;-36
2022/12/26 13:54:51;;;;;;;18.20;2.40;;;;;;;;;;5053881;28;20059;-36
2022/12/26 13:57:38;;;;;;;16.15;2.95;;;;;;;;;;5053793;28;20044;-36
2022/12/26 14:00:17;;;;;;;13.65;2.47;;;;;;;;;;5053491;28;20124;-36
2022/12/26 14:02:59;;;;;;;18.75;2.78;;;;;;;;;;5035692;28;20033;-36
2022/12/26 14:05:44;;;;;;;17.70;2.80;;;;;;;;;;5053464;28;20045;-36
2022/12/26 14:08:31;;;;;;;28.27;3.00;;;;;;;;;;5053517;28;20079;-36
2022/12/26 14:10:58;;;;;;;15.80;2.38;;;;;;;;;;5053340;28;20033;-36
2022/12/26 14:13:34;;;;;;;18.42;2.72;;;;;;;;;;5053502;28;20041;-36
2022/12/26 14:16:21;;;;;;;22.63;3.00;;;;;;;;;;5053351;28;20053;-36
2022/12/26 14:18:57;;;;;;;18.30;2.80;;;;;;;;;;5000059;28;20056;-36
2022/12/26 14:21:30;;;;;;;19.30;3.00;;;;;;;;;;5051560;28;20455;-36
2022/12/26 14:24:13;;;;;;;20.73;2.80;;;;;;;;;;5053254;28;20488;-36
2022/12/26 14:26:46;;;;;;;26.58;2.97;;;;;;;;;;5053201;28;20025;-36
2022/12/26 14:29:16;;;;;;;27.92;3.65;;;;;;;;;;5053012;28;20049;-36
2022/12/26 14:31:53;;;;;;;23.02;3.35;;;;;;;;;;5042087;28;20033;-37
2022/12/26 14:34:38;;;;;;;19.23;3.35;;;;;;;;;;5030773;28;20032;-36
2022/12/26 14:37:17;;;;;;;19.95;3.17;;;;;;;;;;5041090;28;20100;-37
2022/12/26 14:39:44;;;;;;;23.42;3.05;;;;;;;;;;5030162;28;20025;-36
2022/12/26 14:45:05;;;;;;;21.55;2.97;;;;;;;;;;5032214;28;20579;-37
2022/12/26 14:47:45;;;;;;;21.67;3.35;;;;;;;;;;5043784;28;20036;-37
2022/12/26 14:50:30;;;;;;;17.33;3.10;;;;;;;;;;5046724;28;20040;-37
2022/12/26 14:53:17;;;;;;;22.95;3.28;;;;;;;;;;5031599;28;20175;-37
2022/12/26 14:55:47;;;;;;;21.02;3.08;;;;;;;;;;5018436;28;20029;-40
2022/12/26 14:58:24;;;;;;;19.45;3.30;;;;;;;;;;5052442;28;20029;-37
2022/12/26 15:00:51;;;;;;;28.33;3.63;;;;;;;;;;5032525;28;20490;-37
2022/12/26 15:03:18;;;;;;;24.42;3.45;;;;;;;;;;5032561;28;20391;-36
2022/12/26 15:05:47;;;;;;;18.98;3.53;;;;;;;;;;5036856;28;20032;-36
2022/12/26 15:08:26;;;;;;;25.75;3.85;;;;;;;;;;5041699;28;20162;-36
2022/12/26 15:11:17;;;;;;;18.90;3.60;;;;;;;;;;5036471;28;20033;-37
2022/12/26 15:13:59;;;;;;;18.40;3.53;;;;;;;;;;5038297;28;20037;-36
2022/12/26 15:16:31;;;;;;;22.83;3.38;;;;;;;;;;5031955;28;20089;-36
2022/12/26 15:18:58;;;;;;;25.00;3.75;;;;;;;;;;5032063;28;20035;-36
2022/12/26 15:21:38;;;;;;;26.70;3.28;;;;;;;;;;5032110;28;20080;-37
2022/12/26 15:24:07;;;;;;;22.55;3.08;;;;;;;;;;5031977;28;20029;-37
2022/12/26 15:26:34;;;;;;;23.00;3.50;;;;;;;;;;5039570;28;20058;-36
2022/12/26 15:29:10;;;;;;;24.90;3.22;;;;;;;;;;5051792;28;20518;-37
2022/12/26 15:31:56;;;;;;;20.20;3.95;;;;;;;;;;5039007;28;20025;-37
2022/12/26 15:34:41;;;;;;;27.25;4.35;;;;;;;;;;5041187;28;20061;-37
2022/12/26 15:37:20;;;;;;;22.85;4.35;;;;;;;;;;5041135;28;20447;-37
2022/12/26 15:39:56;;;;;;;27.35;4.07;;;;;;;;;;5035145;28;20032;-37
2022/12/26 15:42:26;;;;;;;26.60;4.28;;;;;;;;;;5040880;28;20042;-37
2022/12/26 15:45:05;;;;;;;36.85;4.97;;;;;;;;;;5035144;28;20036;-37
2022/12/26 15:47:48;;;;;;;34.17;4.63;;;;;;;;;;5039904;28;20049;-37
2022/12/26 15:50:27;;;;;;;28.65;4.13;;;;;;;;;;5031753;28;20057;-37
2022/12/26 15:53:08;;;;;;;29.35;4.50;;;;;;;;;;5013755;28;20029;-38
2022/12/26 15:55:35;;;;;;;29.40;5.18;;;;;;;;;;5031643;28;20029;-37
2022/12/26 15:58:08;;;;;;;24.95;4.35;;;;;;;;;;5031652;28;20037;-37
2022/12/26 16:00:51;;;;;;;32.88;4.70;;;;;;;;;;5031623;28;20025;-38
2022/12/26 16:03:21;;;;;;;27.50;4.85;;;;;;;;;;5017989;28;20084;-37
2022/12/26 16:05:51;;;;;;;36.63;6.78;;;;;;;;;;5023415;28;20029;-37
2022/12/26 16:08:36;;;;;;;29.83;5.07;;;;;;;;;;5049674;28;20040;-39
2022/12/26 16:11:09;;;;;;;35.22;5.82;;;;;;;;;;5035661;28;20813;-38
2022/12/26 16:13:36;;;;;;;33.25;5.47;;;;;;;;;;5047860;28;20483;-39
2022/12/26 16:16:03;;;;;;;33.45;5.10;;;;;;;;;;5015825;28;20953;-38
2022/12/26 16:18:31;;;;;;;27.20;4.82;;;;;;;;;;5043713;28;20029;-39
2022/12/26 16:23:46;;;;;;;39.85;6.80;;;;;;;;;;5036940;28;20125;-38
2022/12/26 16:26:23;;;;;;;35.70;5.97;;;;;;;;;;5047516;28;20131;-38
2022/12/26 16:28:51;;;;;;;45.78;6.93;;;;;;;;;;5036305;28;20436;-38
2022/12/26 16:31:25;;;;;;;35.97;6.57;;;;;;;;;;5047284;28;20431;-39
2022/12/26 16:33:53;;;;;;;38.92;6.60;;;;;;;;;;5035135;28;20113;-38
2022/12/26 16:36:22;;;;;;;45.40;6.60;;;;;;;;;;5042101;28;20451;-39
2022/12/26 16:38:49;;;;;;;44.35;6.25;;;;;;;;;;5054400;28;20037;-38
2022/12/26 16:41:19;;;;;;;57.80;8.45;;;;;;;;;;5051517;28;20029;-39
2022/12/26 16:43:46;;;;;;;52.63;7.78;;;;;;;;;;5013993;28;20428;-38
2022/12/26 16:46:14;;;;;;;64.28;8.98;;;;;;;;;;5043643;28;20032;-39
2022/12/26 16:48:41;;;;;;;63.17;8.40;;;;;;;;;;5054940;28;20550;-38
2022/12/26 16:51:27;;;;;;;61.80;9.75;;;;;;;;;;5037143;28;20025;-39
2022/12/26 16:53:54;;;;;;;69.95;8.98;;;;;;;;;;5029668;28;20079;-39
2022/12/26 16:56:21;;;;;;;55.65;8.77;;;;;;;;;;5054532;28;20021;-39
2022/12/26 16:58:48;;;;;;;60.97;8.80;;;;;;;;;;5034673;28;20502;-39
2022/12/26 17:01:16;;;;;;;58.00;7.97;;;;;;;;;;5046696;28;20025;-38
2022/12/26 17:03:52;;;;;;;57.92;9.13;;;;;;;;;;5050258;28;20033;-38
2022/12/26 17:06:24;;;;;;;40.58;7.40;;;;;;;;;;5034522;28;20087;-39
2022/12/26 17:08:52;;;;;;;49.10;8.38;;;;;;;;;;5020569;28;20423;-39
2022/12/26 17:11:26;;;;;;;42.25;6.75;;;;;;;;;;5034395;28;20037;-38
2022/12/26 17:13:54;;;;;;;33.03;6.97;;;;;;;;;;5048377;28;20056;-39